createdAt,value
2019-03-09T00:00:47.312Z,11.30
2019-03-09T00:05:00.051Z,11.30
2019-03-09T00:09:12.823Z,11.20
2019-03-09T00:13:25.595Z,11.10
2019-03-09T00:17:39.371Z,11.00
2019-03-09T00:21:51.791Z,11.00
2019-03-09T00:26:16.622Z,11.10
2019-03-09T00:30:35.261Z,11.10
2019-03-09T00:34:47.849Z,11.10
2019-03-09T00:39:00.748Z,11.10
2019-03-09T00:43:13.442Z,11.00
2019-03-09T00:47:26.436Z,11.00
2019-03-09T00:51:38.981Z,11.10
2019-03-09T00:55:51.405Z,11.10
2019-03-09T01:00:05.534Z,11.10
2019-03-09T01:04:18.259Z,11.10
2019-03-09T01:08:30.594Z,11.10
2019-03-09T01:12:43.021Z,11.10
2019-03-09T01:16:55.803Z,11.00
2019-03-09T01:21:08.248Z,11.00
2019-03-09T01:25:20.760Z,10.90
2019-03-09T01:29:34.091Z,10.80
2019-03-09T01:33:46.307Z,10.80
2019-03-09T01:37:59.791Z,10.80
2019-03-09T01:42:12.648Z,10.80
2019-03-09T01:46:25.104Z,10.80
2019-03-09T01:50:37.403Z,10.80
2019-03-09T01:54:49.714Z,10.80
2019-03-09T01:59:02.973Z,10.80
2019-03-09T02:03:15.374Z,10.90
2019-03-09T02:07:28.981Z,10.90
2019-03-09T02:11:41.707Z,10.90
2019-03-09T02:15:54.164Z,10.90
2019-03-09T02:20:08.166Z,11.00
2019-03-09T02:24:20.791Z,11.10
2019-03-09T02:28:33.242Z,11.10
2019-03-09T02:32:45.545Z,11.20
2019-03-09T02:36:58.540Z,11.30
2019-03-09T02:41:11.172Z,11.30
2019-03-09T02:45:23.712Z,11.30
2019-03-09T02:49:36.310Z,11.30
2019-03-09T02:53:48.761Z,11.20
2019-03-09T02:58:02.303Z,11.20
2019-03-09T03:02:26.200Z,11.20
2019-03-09T03:06:38.707Z,11.20
2019-03-09T03:10:51.083Z,11.20
2019-03-09T03:15:03.990Z,11.20
2019-03-09T03:19:16.472Z,11.30
2019-03-09T03:23:28.880Z,11.20
2019-03-09T03:27:42.320Z,11.20
2019-03-09T03:31:54.631Z,11.20
2019-03-09T03:36:07.534Z,11.10
2019-03-09T03:40:20.152Z,11.10
2019-03-09T03:44:34.438Z,11.00
2019-03-09T03:48:47.065Z,11.10
2019-03-09T03:52:59.483Z,11.10
2019-03-09T03:57:12.827Z,11.10
2019-03-09T04:01:25.525Z,11.20
2019-03-09T04:05:38.264Z,11.30
2019-03-09T04:09:50.771Z,11.30
2019-03-09T04:14:03.256Z,11.40
2019-03-09T04:18:15.917Z,11.30
2019-03-09T04:22:28.329Z,11.40
2019-03-09T04:26:41.224Z,11.30
2019-03-09T04:30:53.776Z,11.40
2019-03-09T04:35:06.411Z,11.40
2019-03-09T04:39:19.194Z,11.40
2019-03-09T04:43:31.736Z,11.40
2019-03-09T04:47:44.424Z,11.40
2019-03-09T04:51:56.983Z,11.40
2019-03-09T04:56:09.401Z,11.40
2019-03-09T05:00:22.386Z,11.40
2019-03-09T05:04:45.592Z,11.40
2019-03-09T05:09:22.919Z,11.30
2019-03-09T05:13:38.389Z,11.40
2019-03-09T05:17:50.973Z,11.40
2019-03-09T05:22:03.308Z,11.30
2019-03-09T05:26:15.716Z,11.30
2019-03-09T05:30:43.097Z,11.20
2019-03-09T05:34:55.888Z,11.20
2019-03-09T05:39:09.192Z,11.20
2019-03-09T05:43:21.869Z,11.20
2019-03-09T05:47:34.835Z,11.30
2019-03-09T05:52:07.620Z,11.30
2019-03-09T05:56:19.908Z,11.30
2019-03-09T06:00:33.540Z,11.30
2019-03-09T06:04:46.240Z,11.30
2019-03-09T06:08:58.702Z,11.20
2019-03-09T06:13:11.303Z,11.30
2019-03-09T06:17:24.707Z,11.30
2019-03-09T06:21:37.447Z,11.20
2019-03-09T06:25:49.899Z,11.30
2019-03-09T06:30:02.886Z,11.30
2019-03-09T06:34:15.437Z,11.30
2019-03-09T06:38:44.520Z,11.40
2019-03-09T06:42:56.820Z,11.40
2019-03-09T06:47:09.628Z,11.40
2019-03-09T06:51:22.099Z,11.40
2019-03-09T06:55:34.401Z,11.50
2019-03-09T06:59:47.201Z,11.50
2019-03-09T07:03:59.760Z,11.60
2019-03-09T07:08:12.063Z,11.60
2019-03-09T07:12:24.379Z,11.60
2019-03-09T07:16:37.168Z,11.50
2019-03-09T07:20:49.699Z,11.60
2019-03-09T07:25:02.619Z,11.60
2019-03-09T07:29:15.062Z,11.60
2019-03-09T07:33:27.374Z,11.60
2019-03-09T07:37:40.328Z,11.60
2019-03-09T07:41:52.898Z,11.50
2019-03-09T07:46:05.720Z,11.60
2019-03-09T07:50:18.264Z,11.60
2019-03-09T07:54:30.629Z,11.60
2019-03-09T07:58:43.585Z,11.60
2019-03-09T08:02:56.036Z,11.70
2019-03-09T08:07:09.054Z,11.60
2019-03-09T08:11:21.594Z,11.60
2019-03-09T08:15:34.036Z,11.60
2019-03-09T08:19:46.888Z,11.60
2019-03-09T08:23:59.402Z,11.60
2019-03-09T08:28:12.123Z,11.60
2019-03-09T08:32:24.691Z,11.60
2019-03-09T08:36:37.203Z,11.60
2019-03-09T08:40:49.658Z,11.60
2019-03-09T08:45:02.582Z,11.60
2019-03-09T08:49:14.959Z,11.60
2019-03-09T08:53:27.352Z,11.70
2019-03-09T08:57:40.158Z,11.70
2019-03-09T09:01:52.650Z,11.80
2019-03-09T09:06:05.027Z,11.80
2019-03-09T09:10:17.824Z,11.90
2019-03-09T09:14:30.419Z,12.00
2019-03-09T09:18:43.467Z,12.10
2019-03-09T09:22:56.069Z,12.10
2019-03-09T09:27:09.121Z,12.20
2019-03-09T09:31:21.578Z,12.20
2019-03-09T09:35:34.475Z,12.20
2019-03-09T09:39:47.240Z,12.30
2019-03-09T09:43:59.689Z,12.30
2019-03-09T09:48:12.315Z,12.40
2019-03-09T09:52:24.880Z,12.50
2019-03-09T09:56:37.348Z,12.60
2019-03-09T10:00:50.084Z,12.70
2019-03-09T10:05:02.535Z,12.80
2019-03-09T10:09:15.529Z,12.90
2019-03-09T10:13:28.099Z,12.90
2019-03-09T10:17:40.656Z,13.00
2019-03-09T10:21:53.389Z,12.90
2019-03-09T10:26:05.909Z,13.00
2019-03-09T10:30:19.892Z,13.00
2019-03-09T10:34:32.466Z,13.00
2019-03-09T10:38:45.231Z,13.00
2019-03-09T10:42:57.554Z,13.10
2019-03-09T10:47:10.334Z,13.20
2019-03-09T10:51:22.688Z,13.30
2019-03-09T10:55:34.995Z,13.40
2019-03-09T10:59:47.848Z,13.70
2019-03-09T11:04:00.449Z,14.10
2019-03-09T11:08:12.858Z,14.50
2019-03-09T11:12:25.651Z,14.60
2019-03-09T11:16:38.418Z,14.60
2019-03-09T11:20:51.581Z,14.50
2019-03-09T11:25:04.470Z,14.50
2019-03-09T11:29:17.435Z,14.50
2019-03-09T11:33:30.148Z,14.40
2019-03-09T11:37:45.038Z,14.30
2019-03-09T11:41:58.237Z,14.20
2019-03-09T11:46:11.279Z,14.30
2019-03-09T11:50:25.236Z,14.30
2019-03-09T11:54:38.235Z,14.20
2019-03-09T11:58:50.924Z,14.20
2019-03-09T12:03:03.440Z,14.20
2019-03-09T12:07:16.655Z,14.20
2019-03-09T12:11:29.379Z,14.10
2019-03-09T12:15:42.564Z,14.20
2019-03-09T12:19:56.115Z,14.40
2019-03-09T12:24:16.147Z,14.40
2019-03-09T12:28:22.977Z,14.50
2019-03-09T12:32:35.835Z,14.40
2019-03-09T12:36:48.232Z,14.40
2019-03-09T12:41:00.775Z,14.30
2019-03-09T12:45:13.901Z,14.20
2019-03-09T12:49:26.293Z,14.20
2019-03-09T12:53:39.089Z,14.10
2019-03-09T12:57:51.538Z,14.10
2019-03-09T13:02:03.959Z,14.00
2019-03-09T13:06:16.917Z,14.00
2019-03-09T13:10:29.503Z,14.10
2019-03-09T13:14:41.815Z,14.10
2019-03-09T13:18:54.219Z,14.20
2019-03-09T13:23:06.912Z,14.40
2019-03-09T13:27:19.424Z,14.40
2019-03-09T13:31:31.721Z,14.40
2019-03-09T13:35:44.858Z,14.30
2019-03-09T13:39:57.248Z,14.30
2019-03-09T13:44:10.184Z,14.30
2019-03-09T13:48:23.860Z,14.30
2019-03-09T13:52:36.212Z,14.40
2019-03-09T13:56:49.660Z,14.60
2019-03-09T14:01:02.073Z,14.80
2019-03-09T14:05:14.628Z,14.80
2019-03-09T14:09:27.228Z,14.30
2019-03-09T14:13:39.730Z,14.00
2019-03-09T14:17:52.131Z,14.00
2019-03-09T14:22:04.934Z,14.00
2019-03-09T14:26:17.381Z,13.80
2019-03-09T14:30:30.927Z,13.70
2019-03-09T14:34:43.243Z,13.60
2019-03-09T14:38:56.215Z,13.50
2019-03-09T14:43:08.848Z,13.50
2019-03-09T14:47:21.843Z,13.50
2019-03-09T14:51:34.444Z,13.40
2019-03-09T14:55:46.746Z,13.30
2019-03-09T15:00:00.332Z,13.30
2019-03-09T15:04:12.686Z,13.30
2019-03-09T15:08:25.292Z,13.30
2019-03-09T15:12:37.911Z,13.30
2019-03-09T15:16:50.840Z,13.30
2019-03-09T15:21:03.399Z,13.20
2019-03-09T15:25:15.960Z,13.30
2019-03-09T15:29:28.582Z,13.10
2019-03-09T15:33:41.044Z,13.10
2019-03-09T15:37:53.359Z,13.10
2019-03-09T15:42:05.856Z,13.10
2019-03-09T15:46:18.560Z,13.10
2019-03-09T15:50:30.916Z,13.10
2019-03-09T15:54:43.312Z,13.00
2019-03-09T15:58:56.008Z,13.10
2019-03-09T16:03:08.572Z,13.20
2019-03-09T16:07:21.457Z,13.20
2019-03-09T16:11:34.045Z,13.30
2019-03-09T16:15:46.486Z,13.40
2019-03-09T16:19:59.347Z,13.40
2019-03-09T16:24:11.854Z,13.30
2019-03-09T16:28:24.760Z,13.20
2019-03-09T16:32:37.207Z,13.00
2019-03-09T16:36:50.767Z,12.90
2019-03-09T16:41:03.067Z,12.90
2019-03-09T16:45:15.678Z,12.80
2019-03-09T16:49:28.481Z,12.70
2019-03-09T16:53:41.221Z,12.70
2019-03-09T16:57:55.052Z,12.60
2019-03-09T17:02:07.508Z,12.60
2019-03-09T17:06:21.004Z,12.60
2019-03-09T17:10:33.466Z,12.70
2019-03-09T17:14:45.870Z,12.50
2019-03-09T17:18:58.721Z,12.50
2019-03-09T17:23:11.123Z,12.40
2019-03-09T17:27:24.004Z,12.30
2019-03-09T17:31:36.631Z,12.10
2019-03-09T17:35:48.983Z,12.00
2019-03-09T17:40:01.863Z,11.80
2019-03-09T17:44:14.579Z,11.80
2019-03-09T17:48:27.035Z,11.80
2019-03-09T17:52:39.728Z,11.80
2019-03-09T17:56:52.188Z,11.80
2019-03-09T18:01:04.589Z,11.80
2019-03-09T18:05:19.691Z,11.80
2019-03-09T18:09:32.465Z,11.80
2019-03-09T18:13:44.911Z,11.80
2019-03-09T18:17:57.327Z,11.80
2019-03-09T18:22:09.809Z,11.70
2019-03-09T18:26:22.801Z,11.70
2019-03-09T18:30:35.196Z,11.70
2019-03-09T18:34:48.098Z,11.70
2019-03-09T18:39:01.969Z,11.70
2019-03-09T18:43:14.718Z,11.70
2019-03-09T18:47:27.180Z,11.70
2019-03-09T18:51:39.864Z,11.70
2019-03-09T18:55:59.321Z,11.60
2019-03-09T19:00:07.183Z,11.60
2019-03-09T19:04:19.544Z,11.60
2019-03-09T19:08:32.542Z,11.60
2019-03-09T19:12:45.191Z,11.60
2019-03-09T19:16:57.696Z,11.60
2019-03-09T19:21:10.497Z,11.70
2019-03-09T19:25:23.008Z,11.70
2019-03-09T19:29:35.859Z,11.70
2019-03-09T19:33:48.474Z,11.70
2019-03-09T19:38:00.790Z,11.80
2019-03-09T19:42:13.004Z,11.80
2019-03-09T19:46:25.931Z,11.90
2019-03-09T19:50:38.412Z,11.90
2019-03-09T19:54:50.723Z,11.90
2019-03-09T19:59:03.458Z,12.00
2019-03-09T20:03:16.010Z,12.00
2019-03-09T20:07:28.804Z,12.00
2019-03-09T20:11:41.355Z,12.00
2019-03-09T20:15:53.668Z,12.00
2019-03-09T20:20:06.376Z,12.00
2019-03-09T20:24:18.984Z,12.00
2019-03-09T20:28:31.594Z,12.10
2019-03-09T20:32:44.060Z,12.10
2019-03-09T20:36:57.696Z,12.10
2019-03-09T20:41:10.112Z,12.10
2019-03-09T20:45:23.059Z,12.00
2019-03-09T20:49:35.622Z,12.00
2019-03-09T20:53:47.868Z,12.10
2019-03-09T20:58:01.276Z,12.10
2019-03-09T21:02:13.512Z,12.10
2019-03-09T21:06:25.827Z,12.10
2019-03-09T21:10:38.517Z,12.10
2019-03-09T21:14:50.974Z,12.20
2019-03-09T21:19:03.607Z,12.20
2019-03-09T21:23:16.276Z,12.20
2019-03-09T21:27:28.632Z,12.10
2019-03-09T21:31:41.095Z,12.10
2019-03-09T21:35:53.832Z,12.10
2019-03-09T21:40:06.421Z,12.10
2019-03-09T21:44:19.033Z,12.10
2019-03-09T21:48:32.439Z,12.10
2019-03-09T21:52:45.137Z,12.10
2019-03-09T21:56:57.686Z,12.10
2019-03-09T22:01:10.063Z,12.10
2019-03-09T22:05:22.793Z,12.20
2019-03-09T22:09:35.238Z,12.10
2019-03-09T22:13:47.457Z,12.10
2019-03-09T22:18:00.345Z,12.10
2019-03-09T22:22:13.014Z,12.10
2019-03-09T22:26:26.870Z,12.10
2019-03-09T22:30:39.161Z,12.00
2019-03-09T22:34:52.123Z,12.00
2019-03-09T22:39:05.208Z,12.00
2019-03-09T22:43:17.910Z,12.10
2019-03-09T22:47:30.475Z,12.10
2019-03-09T22:51:42.839Z,12.10
2019-03-09T22:55:55.560Z,12.00
2019-03-09T23:00:08.749Z,12.00
2019-03-09T23:04:21.514Z,12.00
2019-03-09T23:08:34.473Z,12.00
2019-03-09T23:12:47.108Z,11.90
2019-03-09T23:16:59.512Z,11.90
2019-03-09T23:21:11.827Z,12.00
2019-03-09T23:25:24.646Z,12.00
2019-03-09T23:29:37.085Z,12.00
2019-03-09T23:33:49.488Z,12.00
2019-03-09T23:38:02.352Z,12.00
2019-03-09T23:42:15.148Z,12.00
2019-03-09T23:46:28.161Z,12.00
2019-03-09T23:50:40.664Z,12.00
2019-03-09T23:54:52.918Z,12.00
2019-03-09T23:59:05.803Z,12.00
